Storrs Mansfield, CT (06268)

12:58 PM EST on February 11, 2016 (GMT -0500)
Storrs | | Change Station
CLOSE
Current Station
Personal Weather Station
Location: Mansfield, CT
Elevation: 499 ft
Nearby Weather Stations

Elev 499 ft 41.81 °N, 72.28 °W | Updated 2 seconds ago

Overcast
Overcast
23.5 °F
Feels Like 24 °F
N
0.4
Wind Variable Wind from SW
Gusts 2.5 mph

Today
High -- | Low -- °F
--% Chance of Precip.
Yesterday
High -- | Low -- °F
Precip. -- in
Pressure 29.79 in
Visibility 10.0 miles
Clouds Mostly Cloudy 6000 ft
Overcast 8000 ft
Windchill 24 °F
Dew Point -6 °F
Humidity 26%
Rainfall 0.00 in
Snow Depth Not available.
6:50 AM 5:16 PM
Waxing Crescent, 13% visible
METAR KIJD 111752Z AUTO 30013G23KT 10SM BKN060 OVC080 M04/M18 A2978 RMK AO2 SLP087 60000 T10441178 11033 21050 50001
Pressure 29.79 in
Visibility 10.0 miles
Clouds Mostly Cloudy 6000 ft
Overcast 8000 ft
Windchill 24 °F
Dew Point -6 °F
Humidity 26%
Rainfall 0.00 in
Snow Depth Not available.
6:50 AM 5:16 PM
Waxing Crescent, 13% visible
METAR KIJD 111752Z AUTO 30013G23KT 10SM BKN060 OVC080 M04/M18 A2978 RMK AO2 SLP087 60000 T10441178 11033 21050 50001

10-Day Weather Forecast

Almanac

Astronomy

Feb. 11, 2016 Rise Set
Actual Time
Civil Twilight
Nautical Twilight
Astronomical Twilight
Moon
Length of Visible Light
Length of Day
Tomorrow will be .
, % of the Moon is Illuminated

Today's Extremes

State Highs State Lows

Community

WunderPhotos

Upload Photos

1,892,113 photos uploaded!

WunderBlog® & News

Nearby

Air Quality

  Air Quality AQ Index Pollutant
Not available.

Snow Depth

Station Depth Elevation

Earthquake Activity

City Distance Mag. Time & Date
Minimum magnitude displayed is 2.5.

Coastal Water Temperatures

Place Temperature

Stations

Nearby Weather Stations

Station Location Temp. Windchill Dew Point Humidity Wind Precip. Elev Updated Type
                   

Watches & Warnings

There are currently no watches in effect.